createdAt,value
2022-12-13T00:02:03.777Z,10.30
2022-12-13T00:07:06.224Z,10.00
2022-12-13T00:12:08.695Z,10.70
2022-12-13T00:17:11.079Z,9.90
2022-12-13T00:22:14.098Z,10.90
2022-12-13T00:27:16.703Z,9.20
2022-12-13T00:32:19.193Z,10.90
2022-12-13T00:37:21.676Z,9.50
2022-12-13T00:42:24.209Z,9.20
2022-12-13T00:47:26.652Z,9.90
2022-12-13T00:52:29.135Z,10.50
2022-12-13T00:57:31.701Z,10.50
2022-12-13T01:02:34.085Z,10.30
2022-12-13T01:07:37.726Z,10.00
2022-12-13T01:12:40.172Z,10.00
2022-12-13T01:17:42.671Z,10.50
2022-12-13T01:22:45.103Z,9.90
2022-12-13T01:27:47.549Z,10.10
2022-12-13T01:32:49.941Z,9.60
2022-12-13T01:37:52.264Z,10.60
2022-12-13T01:43:00.742Z,10.50
2022-12-13T01:48:06.269Z,9.90
2022-12-13T01:53:14.182Z,10.40
2022-12-13T01:58:17.398Z,10.40
2022-12-13T02:03:22.607Z,11.00
2022-12-13T02:08:26.009Z,10.20
2022-12-13T02:13:28.440Z,9.30
2022-12-13T02:18:30.762Z,8.50
2022-12-13T02:23:39.053Z,9.70
2022-12-13T02:29:02.478Z,9.50
2022-12-13T02:34:23.987Z,9.40
2022-12-13T02:39:36.271Z,9.00
2022-12-13T02:44:44.031Z,9.80
2022-12-13T02:49:51.410Z,11.10
2022-12-13T02:54:55.839Z,11.00
2022-12-13T03:00:01.918Z,10.30
2022-12-13T03:06:00.631Z,10.30
2022-12-13T03:11:12.466Z,10.60
2022-12-13T03:16:39.433Z,10.40
2022-12-13T03:21:48.659Z,9.70
2022-12-13T03:26:52.226Z,9.40
2022-12-13T03:31:57.494Z,9.90
2022-12-13T03:37:00.021Z,9.80
2022-12-13T03:42:03.486Z,10.90
2022-12-13T03:47:05.990Z,10.70
2022-12-13T03:52:08.281Z,10.90
2022-12-13T03:57:10.670Z,10.10
2022-12-13T04:02:13.112Z,10.70
2022-12-13T04:07:21.842Z,9.80
2022-12-13T04:12:48.187Z,10.30
2022-12-13T04:17:51.359Z,10.30
2022-12-13T04:22:53.849Z,10.90
2022-12-13T04:27:56.177Z,10.60
2022-12-13T04:32:58.790Z,11.10
2022-12-13T04:38:01.680Z,10.50
2022-12-13T04:43:04.165Z,10.40
2022-12-13T04:48:07.766Z,11.00
2022-12-13T04:53:16.119Z,9.70
2022-12-13T04:58:23.004Z,10.10
2022-12-13T05:03:25.732Z,10.00
2022-12-13T05:08:28.224Z,10.80
2022-12-13T05:13:30.666Z,10.50
2022-12-13T05:18:34.384Z,9.90
2022-12-13T05:23:37.080Z,10.00
2022-12-13T05:28:39.515Z,10.40
2022-12-13T05:33:42.167Z,9.90
2022-12-13T05:38:44.964Z,10.50
2022-12-13T05:43:47.361Z,10.90
2022-12-13T05:48:49.850Z,10.10
2022-12-13T05:53:53.516Z,9.20
2022-12-13T05:58:56.253Z,9.70
2022-12-13T06:03:58.724Z,10.40
2022-12-13T06:09:01.472Z,11.50
2022-12-13T06:14:04.003Z,10.90
2022-12-13T06:19:25.394Z,10.20
2022-12-13T06:24:27.898Z,9.80
2022-12-13T06:29:30.352Z,10.70
2022-12-13T06:34:35.822Z,9.80
2022-12-13T06:39:38.823Z,9.00
2022-12-13T06:44:59.121Z,9.90
2022-12-13T06:50:05.530Z,10.00
2022-12-13T06:55:08.822Z,10.00
2022-12-13T07:00:11.731Z,9.90
2022-12-13T07:05:14.214Z,9.40
2022-12-13T07:10:22.539Z,9.90
2022-12-13T07:15:25.230Z,9.30
2022-12-13T07:20:27.807Z,9.80
2022-12-13T07:25:30.314Z,9.50
2022-12-13T07:30:40.911Z,10.00
2022-12-13T07:35:44.245Z,9.30
2022-12-13T07:40:46.663Z,9.60
2022-12-13T07:45:49.071Z,5.10
2022-12-13T07:50:54.724Z,6.90
2022-12-13T07:55:57.431Z,8.90
2022-12-13T08:01:01.991Z,8.90
2022-12-13T08:06:11.335Z,9.90
2022-12-13T08:11:17.568Z,10.40
2022-12-13T08:16:28.262Z,11.00
2022-12-13T08:21:55.151Z,10.80
2022-12-13T08:27:02.297Z,11.40
2022-12-13T08:32:07.841Z,10.00
2022-12-13T08:37:10.217Z,10.10
2022-12-13T08:42:19.247Z,9.70
2022-12-13T08:47:26.327Z,9.90
2022-12-13T08:52:29.567Z,9.50
2022-12-13T08:57:32.264Z,8.90
2022-12-13T09:02:38.786Z,9.00
2022-12-13T09:07:43.006Z,9.80
2022-12-13T09:12:48.455Z,10.50
2022-12-13T09:17:52.484Z,10.30
2022-12-13T09:23:01.307Z,9.80
2022-12-13T09:28:07.591Z,11.10
2022-12-13T09:33:28.204Z,11.50
2022-12-13T09:38:35.848Z,10.40
2022-12-13T09:43:42.624Z,10.30
2022-12-13T09:48:48.332Z,9.80
2022-12-13T09:53:52.864Z,10.40
2022-12-13T09:58:59.961Z,10.90
2022-12-13T10:04:02.409Z,10.70
2022-12-13T10:09:08.563Z,10.90
2022-12-13T10:14:16.166Z,11.00
2022-12-13T10:19:30.082Z,10.20
2022-12-13T10:25:05.133Z,10.00
2022-12-13T10:30:15.734Z,10.90
2022-12-13T10:35:36.449Z,10.20
2022-12-13T10:40:49.339Z,9.30
2022-12-13T10:46:02.813Z,10.10
2022-12-13T10:51:17.156Z,10.50
2022-12-13T10:56:23.818Z,9.70
2022-12-13T11:01:30.426Z,10.80
2022-12-13T11:06:47.135Z,8.70
2022-12-13T11:11:58.332Z,8.50
2022-12-13T11:17:09.170Z,9.30
2022-12-13T11:22:35.030Z,10.10
2022-12-13T11:27:48.527Z,10.40
2022-12-13T11:33:09.445Z,11.40
2022-12-13T11:38:31.276Z,10.20
2022-12-13T11:43:38.597Z,9.50
2022-12-13T11:48:51.094Z,9.90
2022-12-13T11:54:09.079Z,8.90
2022-12-13T11:59:32.143Z,10.10
2022-12-13T12:04:58.080Z,8.40
2022-12-13T12:10:14.030Z,8.10
2022-12-13T12:15:28.335Z,7.90
2022-12-13T12:21:16.906Z,7.70
2022-12-13T12:26:26.258Z,7.70
2022-12-13T12:31:51.275Z,6.00
2022-12-13T12:37:17.847Z,7.10
2022-12-13T12:43:14.497Z,8.40
2022-12-13T12:48:55.120Z,7.90
2022-12-13T12:54:33.475Z,7.00
2022-12-13T13:00:09.483Z,7.10
2022-12-13T13:05:20.319Z,9.10
2022-12-13T13:10:27.281Z,7.90
2022-12-13T13:15:32.786Z,7.40
2022-12-13T13:20:35.796Z,7.80
2022-12-13T13:26:00.239Z,8.10
2022-12-13T13:31:11.157Z,7.80
2022-12-13T13:36:39.562Z,9.10
2022-12-13T13:41:54.099Z,10.40
2022-12-13T13:47:17.125Z,9.40
2022-12-13T13:52:26.445Z,9.30
2022-12-13T13:58:08.985Z,9.30
2022-12-13T14:09:27.008Z,7.60
2022-12-13T14:15:22.936Z,7.40
2022-12-13T14:20:58.036Z,6.90
2022-12-13T14:26:28.969Z,6.70
2022-12-13T14:36:47.999Z,2.70
2022-12-13T14:41:57.552Z,6.10
2022-12-13T14:47:06.208Z,6.80
2022-12-13T14:52:30.235Z,8.00
2022-12-13T14:57:34.880Z,7.60
2022-12-13T15:02:37.392Z,8.10
2022-12-13T15:07:41.802Z,8.60
2022-12-13T15:12:45.522Z,8.50
2022-12-13T15:17:48.138Z,8.90
2022-12-13T15:23:04.354Z,7.60
2022-12-13T15:28:21.246Z,7.80
2022-12-13T15:33:33.390Z,7.30
2022-12-13T15:38:41.343Z,6.40
2022-12-13T15:43:50.302Z,6.20
2022-12-13T15:48:53.766Z,6.60
2022-12-13T15:54:05.455Z,6.60
2022-12-13T15:59:29.299Z,5.90
2022-12-13T16:04:33.084Z,4.90
2022-12-13T16:09:39.469Z,4.60
2022-12-13T16:14:49.238Z,3.80
2022-12-13T16:20:02.120Z,3.10
2022-12-13T16:25:19.383Z,3.70
2022-12-13T16:30:28.430Z,4.60
2022-12-13T16:35:30.767Z,7.10
2022-12-13T16:40:33.447Z,5.60
2022-12-13T16:45:44.671Z,4.80
2022-12-13T16:50:57.731Z,4.20
2022-12-13T16:56:00.623Z,3.60
2022-12-13T17:01:09.395Z,3.20
2022-12-13T17:06:16.198Z,3.10
2022-12-13T17:11:18.773Z,3.50
2022-12-13T17:16:21.367Z,3.80
2022-12-13T17:21:25.897Z,4.00
2022-12-13T17:26:29.246Z,4.00
2022-12-13T17:31:35.800Z,4.70
2022-12-13T17:36:38.853Z,4.50
2022-12-13T17:41:41.935Z,3.90
2022-12-13T17:46:44.354Z,3.20
2022-12-13T17:51:57.949Z,2.60
2022-12-13T17:57:00.441Z,1.90
2022-12-13T18:02:02.930Z,2.70
2022-12-13T18:07:05.315Z,3.10
2022-12-13T18:12:08.545Z,4.10
2022-12-13T18:17:10.959Z,4.70
2022-12-13T18:22:13.356Z,5.30
2022-12-13T18:27:15.713Z,4.40
2022-12-13T18:32:18.003Z,2.50
2022-12-13T18:37:20.362Z,1.30
2022-12-13T18:42:25.244Z,0.90
2022-12-13T18:47:28.233Z,1.20
2022-12-13T18:52:30.821Z,1.20
2022-12-13T18:57:33.240Z,1.30
2022-12-13T19:02:35.678Z,1.10
2022-12-13T19:07:43.217Z,1.50
2022-12-13T19:12:54.229Z,2.00
2022-12-13T19:17:58.739Z,1.80
2022-12-13T19:23:01.049Z,2.10
2022-12-13T19:28:03.499Z,2.30
2022-12-13T19:33:07.897Z,2.70
2022-12-13T19:38:10.477Z,3.60
2022-12-13T19:43:12.853Z,2.10
2022-12-13T19:48:16.020Z,-0.10
2022-12-13T19:53:18.390Z,-0.80
2022-12-13T19:58:20.897Z,-0.20
2022-12-13T20:03:23.392Z,0.80
2022-12-13T20:08:26.549Z,1.40
2022-12-13T20:13:29.699Z,2.50
2022-12-13T20:18:33.620Z,3.00
2022-12-13T20:23:37.243Z,2.20
2022-12-13T20:28:40.127Z,1.40
2022-12-13T20:33:42.787Z,0.30
2022-12-13T20:38:45.202Z,-0.20
2022-12-13T20:43:55.415Z,-0.50
2022-12-13T20:49:00.564Z,-0.60
2022-12-13T20:54:03.164Z,-1.20
2022-12-13T20:59:07.994Z,-1.70
2022-12-13T21:04:11.315Z,-2.10
2022-12-13T21:09:13.762Z,-2.50
2022-12-13T21:14:23.119Z,-2.90
2022-12-13T21:19:39.013Z,-3.10
2022-12-13T21:24:42.174Z,-3.20
2022-12-13T21:29:44.518Z,-3.30
2022-12-13T21:34:46.903Z,-3.40
2022-12-13T21:39:49.221Z,-3.50
2022-12-13T21:44:51.953Z,-3.70
2022-12-13T21:49:54.324Z,-3.60
2022-12-13T21:55:15.165Z,-3.70
2022-12-13T22:00:19.146Z,-4.30
2022-12-13T22:25:35.597Z,-6.00
2022-12-13T22:30:38.714Z,-6.10
2022-12-13T22:35:41.109Z,-6.20
2022-12-13T22:45:46.396Z,-6.30
2022-12-13T22:50:48.734Z,-6.40
2022-12-13T22:55:51.846Z,-6.50
2022-12-13T23:00:54.248Z,-6.60
2022-12-13T23:05:56.957Z,-6.90
2022-12-13T23:11:18.966Z,-7.00
2022-12-13T23:16:23.409Z,-6.60
2022-12-13T23:21:27.675Z,-6.00
2022-12-13T23:26:31.978Z,-5.40
2022-12-13T23:31:37.139Z,-4.30
2022-12-13T23:36:39.667Z,-3.60
2022-12-13T23:41:42.179Z,-3.40
2022-12-13T23:46:48.390Z,-3.20
2022-12-13T23:51:51.212Z,-2.90
2022-12-13T23:56:54.220Z,-2.60
